sensor_id;sensor_type;location;lat;lon;timestamp;temperature;humidity
27657;DHT22;15066;46.134;9.476;2022-08-21T17:32:17;28.50;35.50
27657;DHT22;15066;46.134;9.476;2022-08-21T17:34:46;28.50;42.30
27657;DHT22;15066;46.134;9.476;2022-08-21T17:37:14;28.40;43.50
27657;DHT22;15066;46.134;9.476;2022-08-21T17:39:42;28.30;38.20
27657;DHT22;15066;46.134;9.476;2022-08-21T17:42:11;28.20;44.30
27657;DHT22;15066;46.134;9.476;2022-08-21T17:44:42;28.30;36.80
27657;DHT22;15066;46.134;9.476;2022-08-21T17:57:34;27.80;42.40
27657;DHT22;15066;46.134;9.476;2022-08-21T18:00:04;27.60;40.00
27657;DHT22;15066;46.134;9.476;2022-08-21T18:02:33;27.70;39.70
27657;DHT22;15066;46.134;9.476;2022-08-21T18:05:02;27.80;36.50
27657;DHT22;15066;46.134;9.476;2022-08-21T18:07:32;27.80;35.10
27657;DHT22;15066;46.134;9.476;2022-08-21T18:10:02;27.80;37.10
27657;DHT22;15066;46.134;9.476;2022-08-21T18:12:30;27.80;36.80
27657;DHT22;15066;46.134;9.476;2022-08-21T18:15:00;27.70;36.00
27657;DHT22;15066;46.134;9.476;2022-08-21T18:17:28;27.60;41.90
27657;DHT22;15066;46.134;9.476;2022-08-21T18:19:57;27.50;38.10
27657;DHT22;15066;46.134;9.476;2022-08-21T18:22:26;27.50;39.20
27657;DHT22;15066;46.134;9.476;2022-08-21T18:24:53;27.50;39.50
27657;DHT22;15066;46.134;9.476;2022-08-21T18:27:21;27.40;42.90
27657;DHT22;15066;46.134;9.476;2022-08-21T18:29:49;27.20;44.60
27657;DHT22;15066;46.134;9.476;2022-08-21T18:32:20;27.20;46.00
27657;DHT22;15066;46.134;9.476;2022-08-21T18:34:48;27.20;44.80
27657;DHT22;15066;46.134;9.476;2022-08-21T18:37:16;27.30;36.30
27657;DHT22;15066;46.134;9.476;2022-08-21T18:39:44;27.30;36.40
27657;DHT22;15066;46.134;9.476;2022-08-21T18:42:14;27.30;39.60
27657;DHT22;15066;46.134;9.476;2022-08-21T18:44:48;27.30;37.10
27657;DHT22;15066;46.134;9.476;2022-08-21T18:47:25;27.20;39.60
27657;DHT22;15066;46.134;9.476;2022-08-21T18:49:52;27.20;43.50
27657;DHT22;15066;46.134;9.476;2022-08-21T18:52:21;27.10;41.80
27657;DHT22;15066;46.134;9.476;2022-08-21T18:54:48;27.10;37.70
27657;DHT22;15066;46.134;9.476;2022-08-21T18:57:17;27.10;37.40
27657;DHT22;15066;46.134;9.476;2022-08-21T18:59:47;27.10;39.60
27657;DHT22;15066;46.134;9.476;2022-08-21T19:02:14;27.00;44.20
27657;DHT22;15066;46.134;9.476;2022-08-21T19:04:42;27.10;38.90
27657;DHT22;15066;46.134;9.476;2022-08-21T19:07:09;27.00;38.40
27657;DHT22;15066;46.134;9.476;2022-08-21T19:09:39;27.00;37.50
27657;DHT22;15066;46.134;9.476;2022-08-21T19:12:09;27.00;39.10
27657;DHT22;15066;46.134;9.476;2022-08-21T19:14:37;26.90;40.30
27657;DHT22;15066;46.134;9.476;2022-08-21T19:17:06;26.80;42.60
27657;DHT22;15066;46.134;9.476;2022-08-21T19:19:34;26.70;41.20
27657;DHT22;15066;46.134;9.476;2022-08-21T19:22:02;26.60;50.80
27657;DHT22;15066;46.134;9.476;2022-08-21T19:24:29;26.60;41.90
27657;DHT22;15066;46.134;9.476;2022-08-21T19:26:57;26.60;39.30
27657;DHT22;15066;46.134;9.476;2022-08-21T19:29:24;26.50;50.00
27657;DHT22;15066;46.134;9.476;2022-08-21T19:31:52;26.40;45.30
27657;DHT22;15066;46.134;9.476;2022-08-21T19:34:27;26.30;46.40
27657;DHT22;15066;46.134;9.476;2022-08-21T19:36:56;26.10;49.60
27657;DHT22;15066;46.134;9.476;2022-08-21T19:39:24;26.00;51.10
27657;DHT22;15066;46.134;9.476;2022-08-21T19:41:55;25.80;54.30
27657;DHT22;15066;46.134;9.476;2022-08-21T19:44:26;25.40;70.60
27657;DHT22;15066;46.134;9.476;2022-08-21T19:46:55;24.70;50.70
27657;DHT22;15066;46.134;9.476;2022-08-21T19:49:30;24.20;57.70
27657;DHT22;15066;46.134;9.476;2022-08-21T19:51:59;23.90;52.00
27657;DHT22;15066;46.134;9.476;2022-08-21T19:54:29;24.00;48.30
27657;DHT22;15066;46.134;9.476;2022-08-21T19:57:04;23.80;56.30
27657;DHT22;15066;46.134;9.476;2022-08-21T19:59:36;23.50;55.50
27657;DHT22;15066;46.134;9.476;2022-08-21T20:02:09;23.40;53.20
27657;DHT22;15066;46.134;9.476;2022-08-21T20:04:37;23.80;50.10
27657;DHT22;15066;46.134;9.476;2022-08-21T20:07:05;24.00;53.80
27657;DHT22;15066;46.134;9.476;2022-08-21T20:09:32;24.20;46.90
27657;DHT22;15066;46.134;9.476;2022-08-21T20:12:04;24.60;43.50
27657;DHT22;15066;46.134;9.476;2022-08-21T20:14:32;24.80;43.60
27657;DHT22;15066;46.134;9.476;2022-08-21T20:17:07;24.50;56.30
27657;DHT22;15066;46.134;9.476;2022-08-21T20:19:37;24.30;49.00
27657;DHT22;15066;46.134;9.476;2022-08-21T20:22:05;24.60;45.10
27657;DHT22;15066;46.134;9.476;2022-08-21T20:24:33;24.60;48.40
27657;DHT22;15066;46.134;9.476;2022-08-21T20:27:02;24.50;47.10
27657;DHT22;15066;46.134;9.476;2022-08-21T20:29:31;24.60;53.10
27657;DHT22;15066;46.134;9.476;2022-08-21T20:31:59;24.60;47.90
27657;DHT22;15066;46.134;9.476;2022-08-21T20:34:28;24.80;44.50
27657;DHT22;15066;46.134;9.476;2022-08-21T20:36:55;24.80;51.40
27657;DHT22;15066;46.134;9.476;2022-08-21T20:39:29;24.60;56.00
27657;DHT22;15066;46.134;9.476;2022-08-21T20:42:01;24.60;46.30
27657;DHT22;15066;46.134;9.476;2022-08-21T20:44:31;24.60;49.90
27657;DHT22;15066;46.134;9.476;2022-08-21T20:46:59;24.90;45.80
27657;DHT22;15066;46.134;9.476;2022-08-21T20:49:31;25.10;43.60
27657;DHT22;15066;46.134;9.476;2022-08-21T20:51:58;25.20;46.20
27657;DHT22;15066;46.134;9.476;2022-08-21T20:57:20;24.80;58.30
27657;DHT22;15066;46.134;9.476;2022-08-21T20:59:55;24.80;52.60
27657;DHT22;15066;46.134;9.476;2022-08-21T21:05:34;24.70;64.50
27657;DHT22;15066;46.134;9.476;2022-08-21T21:08:30;24.40;73.50
27657;DHT22;15066;46.134;9.476;2022-08-21T21:11:01;24.00;77.00
27657;DHT22;15066;46.134;9.476;2022-08-21T21:13:38;23.70;63.50
27657;DHT22;15066;46.134;9.476;2022-08-21T21:16:13;23.60;63.00
27657;DHT22;15066;46.134;9.476;2022-08-21T21:18:48;23.50;69.10
27657;DHT22;15066;46.134;9.476;2022-08-21T21:21:32;23.40;62.30
27657;DHT22;15066;46.134;9.476;2022-08-21T21:24:06;23.40;65.10
27657;DHT22;15066;46.134;9.476;2022-08-21T21:29:29;23.70;57.50
27657;DHT22;15066;46.134;9.476;2022-08-21T21:31:56;23.60;54.70
27657;DHT22;15066;46.134;9.476;2022-08-21T21:34:26;23.60;56.10
27657;DHT22;15066;46.134;9.476;2022-08-21T21:39:40;23.60;65.60
27657;DHT22;15066;46.134;9.476;2022-08-21T21:42:33;23.40;68.10
27657;DHT22;15066;46.134;9.476;2022-08-21T21:47:49;23.30;55.90
27657;DHT22;15066;46.134;9.476;2022-08-21T21:50:37;23.40;61.40
27657;DHT22;15066;46.134;9.476;2022-08-21T21:59:17;23.00;64.30
27657;DHT22;15066;46.134;9.476;2022-08-21T22:09:49;23.00;64.90
27657;DHT22;15066;46.134;9.476;2022-08-21T22:15:06;23.00;60.90
27657;DHT22;15066;46.134;9.476;2022-08-21T22:20:20;23.00;56.90
27657;DHT22;15066;46.134;9.476;2022-08-21T22:22:44;22.90;56.60
27657;DHT22;15066;46.134;9.476;2022-08-21T22:25:25;22.90;64.30
27657;DHT22;15066;46.134;9.476;2022-08-21T22:27:54;22.80;60.20
27657;DHT22;15066;46.134;9.476;2022-08-21T22:30:44;22.70;57.90
27657;DHT22;15066;46.134;9.476;2022-08-21T22:32:50;22.60;62.70
27657;DHT22;15066;46.134;9.476;2022-08-21T22:35:25;22.70;62.40
27657;DHT22;15066;46.134;9.476;2022-08-21T22:37:56;22.70;58.00
27657;DHT22;15066;46.134;9.476;2022-08-21T22:40:34;22.70;64.70
27657;DHT22;15066;46.134;9.476;2022-08-21T22:43:09;22.60;65.50
27657;DHT22;15066;46.134;9.476;2022-08-21T22:46:05;22.50;59.20
27657;DHT22;15066;46.134;9.476;2022-08-21T22:48:38;22.60;60.00
27657;DHT22;15066;46.134;9.476;2022-08-21T22:53:42;22.40;61.00
27657;DHT22;15066;46.134;9.476;2022-08-21T22:56:10;22.40;58.60
27657;DHT22;15066;46.134;9.476;2022-08-21T22:58:58;22.40;58.30
27657;DHT22;15066;46.134;9.476;2022-08-21T23:03:55;22.30;58.60
27657;DHT22;15066;46.134;9.476;2022-08-21T23:06:34;22.30;58.10
27657;DHT22;15066;46.134;9.476;2022-08-21T23:09:07;22.40;63.40
27657;DHT22;15066;46.134;9.476;2022-08-21T23:11:39;22.30;59.40
27657;DHT22;15066;46.134;9.476;2022-08-21T23:14:08;22.20;58.80
27657;DHT22;15066;46.134;9.476;2022-08-21T23:17:11;22.10;58.90
27657;DHT22;15066;46.134;9.476;2022-08-21T23:20:04;22.20;59.50
27657;DHT22;15066;46.134;9.476;2022-08-21T23:23:12;22.20;58.90
27657;DHT22;15066;46.134;9.476;2022-08-21T23:41:45;21.90;60.00
27657;DHT22;15066;46.134;9.476;2022-08-21T23:50:04;21.80;58.60
27657;DHT22;15066;46.134;9.476;2022-08-21T23:52:41;21.80;59.60
